createdAt,value
2022-11-30T00:01:19.554Z,6.80
2022-11-30T00:03:46.630Z,6.80
2022-11-30T00:06:16.970Z,6.80
2022-11-30T00:08:43.748Z,6.80
2022-11-30T00:11:18.951Z,6.70
2022-11-30T00:13:45.785Z,6.80
2022-11-30T00:16:12.981Z,6.70
2022-11-30T00:18:40.292Z,6.70
2022-11-30T00:21:10.659Z,6.70
2022-11-30T00:23:39.854Z,6.70
2022-11-30T00:26:09.407Z,6.70
2022-11-30T00:28:37.793Z,6.70
2022-11-30T00:31:07.268Z,6.60
2022-11-30T00:33:36.022Z,6.60
2022-11-30T00:36:05.533Z,6.60
2022-11-30T00:38:33.378Z,6.60
2022-11-30T00:41:01.548Z,6.70
2022-11-30T00:43:29.231Z,6.70
2022-11-30T00:45:56.388Z,6.70
2022-11-30T00:48:23.396Z,6.70
2022-11-30T00:50:51.188Z,6.70
2022-11-30T00:53:19.281Z,6.70
2022-11-30T00:55:47.128Z,6.70
2022-11-30T00:58:14.311Z,6.80
2022-11-30T01:00:41.850Z,6.80
2022-11-30T01:03:09.805Z,6.80
2022-11-30T01:05:36.924Z,6.80
2022-11-30T01:08:06.389Z,6.80
2022-11-30T01:10:38.777Z,6.90
2022-11-30T01:13:06.603Z,6.80
2022-11-30T01:15:38.272Z,6.80
2022-11-30T01:18:05.476Z,6.80
2022-11-30T01:20:33.490Z,6.80
2022-11-30T01:23:00.624Z,6.70
2022-11-30T01:25:27.767Z,6.80
2022-11-30T01:27:54.743Z,6.80
2022-11-30T01:30:21.730Z,6.80
2022-11-30T01:32:48.553Z,6.80
2022-11-30T01:35:15.479Z,6.80
2022-11-30T01:37:42.408Z,6.80
2022-11-30T01:40:11.787Z,6.80
2022-11-30T01:42:38.632Z,6.80
2022-11-30T01:45:07.388Z,6.80
2022-11-30T01:47:53.669Z,6.80
2022-11-30T01:50:28.902Z,6.80
2022-11-30T01:52:57.728Z,6.80
2022-11-30T01:55:37.822Z,6.80
2022-11-30T01:58:09.886Z,6.80
2022-11-30T02:00:36.884Z,6.80
2022-11-30T02:03:22.896Z,6.80
2022-11-30T02:05:50.033Z,6.80
2022-11-30T02:08:17.829Z,6.80
2022-11-30T02:10:51.813Z,6.80
2022-11-30T02:13:30.604Z,6.80
2022-11-30T02:16:18.066Z,6.80
2022-11-30T02:19:14.392Z,6.80
2022-11-30T02:21:53.941Z,6.80
2022-11-30T02:24:42.437Z,6.80
2022-11-30T02:27:48.673Z,6.80
2022-11-30T02:30:19.532Z,6.90
2022-11-30T02:32:52.061Z,6.80
2022-11-30T02:35:22.023Z,6.80
2022-11-30T02:37:51.692Z,6.90
2022-11-30T02:40:19.897Z,6.80
2022-11-30T02:42:50.432Z,6.90
2022-11-30T02:45:26.461Z,6.90
2022-11-30T02:48:10.610Z,6.90
2022-11-30T02:50:48.923Z,6.90
2022-11-30T02:53:15.678Z,6.90
2022-11-30T02:55:42.640Z,6.90
2022-11-30T02:58:09.635Z,6.90
2022-11-30T03:00:36.633Z,6.90
2022-11-30T03:03:03.758Z,6.90
2022-11-30T03:05:30.909Z,6.90
2022-11-30T03:07:57.770Z,6.90
2022-11-30T03:10:25.391Z,6.90
2022-11-30T03:12:52.409Z,7.00
2022-11-30T03:15:19.280Z,6.90
2022-11-30T03:17:46.561Z,6.90
2022-11-30T03:20:13.553Z,6.90
2022-11-30T03:22:40.473Z,6.90
2022-11-30T03:25:07.724Z,7.00
2022-11-30T03:27:34.894Z,7.00
2022-11-30T03:30:01.943Z,7.00
2022-11-30T03:32:30.607Z,6.90
2022-11-30T03:34:57.696Z,6.90
2022-11-30T03:37:24.617Z,6.90
2022-11-30T03:39:56.484Z,7.00
2022-11-30T03:42:38.308Z,6.90
2022-11-30T03:45:06.404Z,6.90
2022-11-30T03:47:33.252Z,6.90
2022-11-30T03:50:00.303Z,6.90
2022-11-30T03:52:27.132Z,6.90
2022-11-30T03:54:54.088Z,6.90
2022-11-30T03:57:21.129Z,6.90
2022-11-30T03:59:47.959Z,6.90
2022-11-30T04:02:14.919Z,6.90
2022-11-30T04:04:41.808Z,6.90
2022-11-30T04:07:08.618Z,6.90
2022-11-30T04:09:35.592Z,6.90
2022-11-30T04:12:02.817Z,6.90
2022-11-30T04:14:29.679Z,7.00
2022-11-30T04:16:56.708Z,7.00
2022-11-30T04:19:23.793Z,7.00
2022-11-30T04:21:51.701Z,7.00
2022-11-30T04:24:18.576Z,7.00
2022-11-30T04:26:46.268Z,7.00
2022-11-30T04:29:13.136Z,7.00
2022-11-30T04:31:40.256Z,7.00
2022-11-30T04:34:07.173Z,7.10
2022-11-30T04:36:34.126Z,7.00
2022-11-30T04:39:01.122Z,7.00
2022-11-30T04:41:27.974Z,7.00
2022-11-30T04:43:55.009Z,7.00
2022-11-30T04:46:21.949Z,7.00
2022-11-30T04:48:49.026Z,7.00
2022-11-30T04:51:16.108Z,7.00
2022-11-30T04:53:42.937Z,7.00
2022-11-30T04:56:11.312Z,7.00
2022-11-30T04:58:39.102Z,7.10
2022-11-30T05:01:06.841Z,7.10
2022-11-30T05:03:33.887Z,7.10
2022-11-30T05:06:00.801Z,7.10
2022-11-30T05:08:28.046Z,7.10
2022-11-30T05:10:55.709Z,7.10
2022-11-30T05:13:24.457Z,7.10
2022-11-30T05:15:53.877Z,7.10
2022-11-30T05:18:21.089Z,7.10
2022-11-30T05:20:51.034Z,7.10
2022-11-30T05:23:18.674Z,7.10
2022-11-30T05:25:46.052Z,7.10
2022-11-30T05:28:13.489Z,7.10
2022-11-30T05:30:41.583Z,7.10
2022-11-30T05:33:09.091Z,7.10
2022-11-30T05:35:36.472Z,7.10
2022-11-30T05:38:04.119Z,7.00
2022-11-30T05:40:32.714Z,7.10
2022-11-30T05:43:02.725Z,7.10
2022-11-30T05:45:30.322Z,7.00
2022-11-30T05:47:57.332Z,7.00
2022-11-30T05:50:24.241Z,7.10
2022-11-30T05:52:56.272Z,7.10
2022-11-30T05:55:24.472Z,7.10
2022-11-30T05:57:51.374Z,7.10
2022-11-30T06:00:18.923Z,7.10
2022-11-30T06:02:46.494Z,7.10
2022-11-30T06:05:13.866Z,7.10
2022-11-30T06:07:42.031Z,7.10
2022-11-30T06:10:09.544Z,7.10
2022-11-30T06:12:37.871Z,7.10
2022-11-30T06:15:05.163Z,7.10
2022-11-30T06:17:32.537Z,7.10
2022-11-30T06:19:59.461Z,7.20
2022-11-30T06:22:26.412Z,7.20
2022-11-30T06:24:53.468Z,7.20
2022-11-30T06:27:20.347Z,7.20
2022-11-30T06:29:47.825Z,7.10
2022-11-30T06:32:14.674Z,7.10
2022-11-30T06:34:41.566Z,7.20
2022-11-30T06:37:08.437Z,7.20
2022-11-30T06:40:04.838Z,7.20
2022-11-30T06:42:22.407Z,7.20
2022-11-30T06:44:50.151Z,7.20
2022-11-30T06:47:17.103Z,7.20
2022-11-30T06:49:44.092Z,7.20
2022-11-30T06:52:11.174Z,7.20
2022-11-30T06:54:38.101Z,7.20
2022-11-30T06:57:05.028Z,7.30
2022-11-30T06:59:31.903Z,7.20
2022-11-30T07:02:01.672Z,7.30
2022-11-30T07:04:33.832Z,7.30
2022-11-30T07:07:00.625Z,7.30
2022-11-30T07:09:27.540Z,7.30
2022-11-30T07:11:54.470Z,7.30
2022-11-30T07:14:21.666Z,7.30
2022-11-30T07:16:48.568Z,7.30
2022-11-30T07:19:15.631Z,7.30
2022-11-30T07:21:43.443Z,7.40
2022-11-30T07:24:30.986Z,7.50
2022-11-30T07:27:00.426Z,7.50
2022-11-30T07:29:28.048Z,7.60
2022-11-30T07:31:55.837Z,7.60
2022-11-30T07:34:23.140Z,7.60
2022-11-30T07:36:52.986Z,7.60
2022-11-30T07:39:19.987Z,7.60
2022-11-30T07:41:46.910Z,7.60
2022-11-30T07:44:13.874Z,7.60
2022-11-30T07:46:40.704Z,7.70
2022-11-30T07:49:09.388Z,7.70
2022-11-30T07:51:36.790Z,7.70
2022-11-30T07:54:05.330Z,7.70
2022-11-30T07:56:32.256Z,7.80
2022-11-30T07:59:01.521Z,7.80
2022-11-30T08:01:31.515Z,7.80
2022-11-30T08:03:59.520Z,7.80
2022-11-30T08:06:29.009Z,7.80
2022-11-30T08:08:59.037Z,7.90
2022-11-30T08:11:30.299Z,7.90
2022-11-30T08:13:57.442Z,7.90
2022-11-30T08:16:27.554Z,8.00
2022-11-30T08:18:56.404Z,8.00
2022-11-30T08:21:23.389Z,8.10
2022-11-30T08:23:53.528Z,8.20
2022-11-30T08:26:29.429Z,8.20
2022-11-30T08:28:57.823Z,8.30
2022-11-30T08:31:30.546Z,8.40
2022-11-30T08:33:59.645Z,8.50
2022-11-30T08:36:28.318Z,8.50
2022-11-30T08:38:57.965Z,8.60
2022-11-30T08:41:25.134Z,8.60
2022-11-30T08:43:52.729Z,8.60
2022-11-30T08:46:49.687Z,8.70
2022-11-30T08:49:25.176Z,8.50
2022-11-30T08:57:34.077Z,8.70
2022-11-30T09:00:00.921Z,8.60
2022-11-30T09:02:27.834Z,8.70
2022-11-30T09:04:54.687Z,8.80
2022-11-30T09:07:21.735Z,8.80
2022-11-30T09:09:48.785Z,8.80
2022-11-30T09:12:15.678Z,8.90
2022-11-30T09:14:42.865Z,8.80
2022-11-30T09:17:09.796Z,8.90
2022-11-30T09:19:36.716Z,8.90
2022-11-30T09:22:03.817Z,9.00
2022-11-30T09:24:30.702Z,9.00
2022-11-30T09:26:57.851Z,9.00
2022-11-30T09:29:24.974Z,8.90
2022-11-30T09:31:51.997Z,9.00
2022-11-30T09:34:18.925Z,9.00
2022-11-30T09:36:46.243Z,9.00
2022-11-30T09:39:13.226Z,9.00
2022-11-30T09:41:40.163Z,9.10
2022-11-30T09:44:24.132Z,9.20
2022-11-30T09:46:56.728Z,9.20
2022-11-30T09:49:28.139Z,9.30
2022-11-30T09:51:58.628Z,9.50
2022-11-30T09:54:36.689Z,9.50
2022-11-30T09:57:29.656Z,9.60
2022-11-30T09:59:59.796Z,9.60
2022-11-30T10:02:30.759Z,9.70
2022-11-30T10:04:58.487Z,9.60
2022-11-30T10:08:00.970Z,9.60
2022-11-30T10:10:47.120Z,9.60
2022-11-30T10:13:44.952Z,9.50
2022-11-30T10:16:36.318Z,9.50
2022-11-30T10:19:22.285Z,9.50
2022-11-30T10:22:21.313Z,9.40
2022-11-30T10:25:08.587Z,9.40
2022-11-30T10:28:08.164Z,9.30
2022-11-30T10:30:49.057Z,9.40
2022-11-30T10:33:24.347Z,9.40
2022-11-30T10:36:34.616Z,9.40
2022-11-30T10:39:04.851Z,9.50
2022-11-30T10:41:40.650Z,9.50
2022-11-30T10:44:15.952Z,9.60
2022-11-30T10:46:57.044Z,9.50
2022-11-30T10:49:28.073Z,9.50
2022-11-30T10:52:01.560Z,9.50
2022-11-30T10:54:30.671Z,9.40
2022-11-30T10:57:01.767Z,9.30
2022-11-30T10:59:49.286Z,9.20
2022-11-30T11:02:37.147Z,9.20
2022-11-30T11:05:14.987Z,9.20
2022-11-30T11:07:52.369Z,9.30
2022-11-30T11:10:41.321Z,9.30
2022-11-30T11:13:17.587Z,9.30
2022-11-30T11:15:59.425Z,9.30
2022-11-30T11:18:29.849Z,9.40
2022-11-30T11:21:23.276Z,9.40
2022-11-30T11:23:55.889Z,9.40
2022-11-30T11:26:29.912Z,9.40
2022-11-30T11:29:02.516Z,9.40
2022-11-30T11:31:59.838Z,9.40
2022-11-30T11:34:35.609Z,9.50
2022-11-30T11:37:16.431Z,9.60
2022-11-30T11:39:43.552Z,9.60
2022-11-30T11:42:22.551Z,9.70
2022-11-30T11:44:55.677Z,9.70
2022-11-30T11:47:26.750Z,9.70
2022-11-30T11:50:43.262Z,9.70
2022-11-30T11:53:39.583Z,9.70
2022-11-30T11:56:16.760Z,9.80
2022-11-30T11:58:57.006Z,9.90
2022-11-30T12:01:47.749Z,9.90
2022-11-30T12:04:37.554Z,9.90
2022-11-30T12:07:22.765Z,9.90
2022-11-30T12:10:21.844Z,10.00
2022-11-30T12:12:55.678Z,10.10
2022-11-30T12:15:31.318Z,10.10
2022-11-30T12:18:29.948Z,10.10
2022-11-30T12:21:15.530Z,10.10
2022-11-30T12:23:48.484Z,10.10
2022-11-30T12:26:45.211Z,10.00
2022-11-30T12:29:25.652Z,9.70
2022-11-30T12:32:07.913Z,9.60
2022-11-30T12:35:09.801Z,9.50
2022-11-30T12:37:58.228Z,9.50
2022-11-30T12:41:05.791Z,9.50
2022-11-30T12:43:59.340Z,9.40
2022-11-30T12:46:40.680Z,9.40
2022-11-30T12:49:14.092Z,9.40
2022-11-30T12:52:01.485Z,9.50
2022-11-30T12:54:44.298Z,9.50
2022-11-30T12:57:30.232Z,9.50
2022-11-30T13:00:18.825Z,9.50
2022-11-30T13:02:54.656Z,9.60
2022-11-30T13:05:33.150Z,9.60
2022-11-30T13:08:12.483Z,9.70
2022-11-30T13:10:46.708Z,9.80
2022-11-30T13:13:26.549Z,9.70
2022-11-30T13:15:54.236Z,9.80
2022-11-30T13:18:23.932Z,9.80
2022-11-30T13:21:06.976Z,9.80
2022-11-30T13:23:40.344Z,9.80
2022-11-30T13:26:46.543Z,9.70
2022-11-30T13:29:31.673Z,9.70
2022-11-30T13:32:41.088Z,9.70
2022-11-30T13:35:29.313Z,9.60
2022-11-30T13:38:36.305Z,9.60
2022-11-30T13:41:06.542Z,9.50
2022-11-30T13:43:48.227Z,9.50
2022-11-30T13:46:24.711Z,9.50
2022-11-30T13:49:16.884Z,9.40
2022-11-30T13:51:43.952Z,9.50
2022-11-30T13:54:50.427Z,9.40
2022-11-30T13:57:30.240Z,9.40
2022-11-30T13:59:58.279Z,9.30
2022-11-30T14:02:34.118Z,9.30
2022-11-30T14:05:19.487Z,9.30
2022-11-30T14:07:52.765Z,9.20
2022-11-30T14:10:32.047Z,9.20
2022-11-30T14:13:03.472Z,9.20
2022-11-30T14:15:50.337Z,9.20
2022-11-30T14:18:20.583Z,9.20
2022-11-30T14:21:15.616Z,9.10
2022-11-30T14:24:04.012Z,9.00
2022-11-30T14:26:40.731Z,9.00
2022-11-30T14:29:07.588Z,9.00
2022-11-30T14:31:50.661Z,8.90
2022-11-30T14:34:29.347Z,8.90
2022-11-30T14:37:02.502Z,8.80
2022-11-30T14:39:36.424Z,8.80
2022-11-30T14:42:05.307Z,8.70
2022-11-30T14:44:36.864Z,8.70
2022-11-30T14:47:14.948Z,8.70
2022-11-30T14:49:52.163Z,8.60
2022-11-30T14:52:44.050Z,8.70
2022-11-30T14:55:46.312Z,8.70
2022-11-30T14:58:30.940Z,8.70
2022-11-30T15:00:59.431Z,8.70
2022-11-30T15:03:31.836Z,8.70
2022-11-30T15:06:03.340Z,8.70
2022-11-30T15:08:44.504Z,8.70
2022-11-30T15:11:14.199Z,8.70
2022-11-30T15:13:44.743Z,8.60
2022-11-30T15:16:25.435Z,8.60
2022-11-30T15:18:54.277Z,8.70
2022-11-30T15:21:30.388Z,8.70
2022-11-30T15:24:00.154Z,8.80
2022-11-30T15:27:10.626Z,8.80
2022-11-30T15:29:54.432Z,8.80
2022-11-30T15:32:24.747Z,8.80
2022-11-30T15:35:04.906Z,8.80
2022-11-30T15:37:34.650Z,8.80
2022-11-30T15:40:07.564Z,8.70
2022-11-30T15:42:40.575Z,8.70
2022-11-30T15:45:56.154Z,8.70
2022-11-30T15:48:29.156Z,8.60
2022-11-30T15:51:01.056Z,8.60
2022-11-30T15:53:47.658Z,8.60
2022-11-30T15:56:25.657Z,8.60
2022-11-30T15:59:30.719Z,8.60
2022-11-30T16:02:09.172Z,8.60
2022-11-30T16:05:06.522Z,8.60
2022-11-30T16:07:43.487Z,8.60
2022-11-30T16:10:25.752Z,8.60
2022-11-30T16:12:54.113Z,8.60
2022-11-30T16:15:23.272Z,8.60
2022-11-30T16:17:51.438Z,8.60
2022-11-30T16:20:18.392Z,8.60
2022-11-30T16:22:46.962Z,8.60
2022-11-30T16:25:16.893Z,8.50
2022-11-30T16:27:44.615Z,8.60
2022-11-30T16:30:16.619Z,8.60
2022-11-30T16:32:44.135Z,8.50
2022-11-30T16:35:47.263Z,8.60
2022-11-30T16:38:14.216Z,8.60
2022-11-30T16:40:41.440Z,8.60
2022-11-30T16:43:11.368Z,8.60
2022-11-30T16:45:39.846Z,8.60
2022-11-30T16:48:07.700Z,8.50
2022-11-30T16:50:35.088Z,8.50
2022-11-30T16:53:02.569Z,8.50
2022-11-30T16:55:35.088Z,8.50
2022-11-30T16:58:03.125Z,8.50
2022-11-30T17:00:30.601Z,8.50
2022-11-30T17:03:05.223Z,8.50
2022-11-30T17:05:32.792Z,8.50
2022-11-30T17:07:59.926Z,8.50
2022-11-30T17:10:27.262Z,8.50
2022-11-30T17:12:54.089Z,8.50
2022-11-30T17:15:23.558Z,8.40
2022-11-30T17:17:50.578Z,8.50
2022-11-30T17:20:17.848Z,8.40
2022-11-30T17:22:45.537Z,8.40
2022-11-30T17:25:16.787Z,8.40
2022-11-30T17:27:43.821Z,8.40
2022-11-30T17:30:12.371Z,8.40
2022-11-30T17:32:39.335Z,8.40
2022-11-30T17:35:06.765Z,8.40
2022-11-30T17:37:33.600Z,8.30
2022-11-30T17:40:00.596Z,8.40
2022-11-30T17:42:27.817Z,8.30
2022-11-30T17:44:54.691Z,8.30
2022-11-30T17:47:22.480Z,8.30
2022-11-30T17:49:51.014Z,8.30
2022-11-30T17:52:17.920Z,8.30
2022-11-30T17:54:44.947Z,8.30
2022-11-30T17:57:11.960Z,8.30
2022-11-30T17:59:38.927Z,8.30
2022-11-30T18:02:07.419Z,8.30
2022-11-30T18:04:34.520Z,8.30
2022-11-30T18:07:01.641Z,8.30
2022-11-30T18:09:28.767Z,8.30
2022-11-30T18:11:55.601Z,8.20
2022-11-30T18:14:22.449Z,8.30
2022-11-30T18:16:49.413Z,8.20
2022-11-30T18:19:17.950Z,8.10
2022-11-30T18:21:45.240Z,8.10
2022-11-30T18:24:12.684Z,8.10
2022-11-30T18:26:39.975Z,8.10
2022-11-30T18:29:07.691Z,8.10
2022-11-30T18:31:36.400Z,8.00
2022-11-30T18:34:07.134Z,8.00
2022-11-30T18:36:34.567Z,8.00
2022-11-30T18:39:01.798Z,8.00
2022-11-30T18:41:30.479Z,8.00
2022-11-30T18:43:57.788Z,8.00
2022-11-30T18:46:25.127Z,8.00
2022-11-30T18:48:54.405Z,8.10
2022-11-30T18:51:24.269Z,8.10
2022-11-30T18:53:59.723Z,8.00
2022-11-30T18:56:29.808Z,8.10
2022-11-30T18:58:58.750Z,8.00
2022-11-30T19:01:26.618Z,8.10
2022-11-30T19:03:54.722Z,8.10
2022-11-30T19:06:22.249Z,8.00
2022-11-30T19:08:49.450Z,8.00
2022-11-30T19:11:17.540Z,8.00
2022-11-30T19:13:45.392Z,8.00
2022-11-30T19:16:14.724Z,8.00
2022-11-30T19:18:47.715Z,8.00
2022-11-30T19:21:16.472Z,8.00
2022-11-30T19:23:43.834Z,8.00
2022-11-30T19:26:11.910Z,8.00
2022-11-30T19:28:40.029Z,7.90
2022-11-30T19:31:18.525Z,8.00
2022-11-30T19:33:48.196Z,8.00
2022-11-30T19:36:17.904Z,7.90
2022-11-30T19:38:44.965Z,7.90
2022-11-30T19:41:13.557Z,8.00
2022-11-30T19:43:40.809Z,7.90
2022-11-30T19:46:13.976Z,7.90
2022-11-30T19:48:41.977Z,7.90
2022-11-30T19:51:16.362Z,7.90
2022-11-30T19:53:45.257Z,8.00
2022-11-30T19:56:18.099Z,8.00
2022-11-30T19:58:46.266Z,7.90
2022-11-30T20:01:24.419Z,7.90
2022-11-30T20:03:53.031Z,7.90
2022-11-30T20:06:23.587Z,7.90
2022-11-30T20:08:50.398Z,7.90
2022-11-30T20:11:17.728Z,7.90
2022-11-30T20:13:45.945Z,7.90
2022-11-30T20:16:15.149Z,8.00
2022-11-30T20:18:46.371Z,7.90
2022-11-30T20:21:16.829Z,7.90
2022-11-30T20:23:44.781Z,7.90
2022-11-30T20:26:14.383Z,7.90
2022-11-30T20:28:41.504Z,7.90
2022-11-30T20:31:10.099Z,7.90
2022-11-30T20:33:37.331Z,7.90
2022-11-30T20:36:07.037Z,7.80
2022-11-30T20:38:34.511Z,7.90
2022-11-30T20:41:01.641Z,7.90
2022-11-30T20:43:28.667Z,7.90
2022-11-30T20:45:56.236Z,7.90
2022-11-30T20:48:23.254Z,7.90
2022-11-30T20:51:21.717Z,7.90
2022-11-30T20:53:37.517Z,7.90
2022-11-30T20:56:04.872Z,7.90
2022-11-30T20:58:32.145Z,7.90
2022-11-30T21:00:59.872Z,7.90
2022-11-30T21:03:27.434Z,7.90
2022-11-30T21:05:54.654Z,7.90
2022-11-30T21:08:21.657Z,7.90
2022-11-30T21:10:48.557Z,7.90
2022-11-30T21:13:15.530Z,7.90
2022-11-30T21:15:42.685Z,7.90
2022-11-30T21:18:09.752Z,7.90
2022-11-30T21:20:36.609Z,7.90
2022-11-30T21:23:03.485Z,7.90
2022-11-30T21:25:30.622Z,7.90
2022-11-30T21:27:57.501Z,7.90
2022-11-30T21:30:24.598Z,7.90
2022-11-30T21:32:51.523Z,7.90
2022-11-30T21:35:18.521Z,7.80
2022-11-30T21:37:45.761Z,7.90
2022-11-30T21:40:13.024Z,7.90
2022-11-30T21:42:40.029Z,7.90
2022-11-30T21:45:07.446Z,7.90
2022-11-30T21:47:34.325Z,7.90
2022-11-30T21:50:01.158Z,7.90
2022-11-30T21:52:28.608Z,7.80
2022-11-30T21:54:55.752Z,7.80
2022-11-30T21:57:22.915Z,7.90
2022-11-30T21:59:50.302Z,7.80
2022-11-30T22:02:17.703Z,7.80
2022-11-30T22:04:44.878Z,7.80
2022-11-30T22:07:13.412Z,7.80
2022-11-30T22:09:40.507Z,7.70
2022-11-30T22:12:07.876Z,7.80
2022-11-30T22:14:36.459Z,7.80
2022-11-30T22:17:03.606Z,7.70
2022-11-30T22:19:30.661Z,7.70
2022-11-30T22:21:57.783Z,7.70
2022-11-30T22:24:24.895Z,7.70
2022-11-30T22:26:51.796Z,7.60
2022-11-30T22:29:21.198Z,7.60
2022-11-30T22:31:51.105Z,7.60
2022-11-30T22:34:18.686Z,7.60
2022-11-30T22:36:47.575Z,7.60
2022-11-30T22:39:17.453Z,7.60
2022-11-30T22:41:51.237Z,7.60
2022-11-30T22:44:22.884Z,7.50
2022-11-30T22:46:49.943Z,7.50
2022-11-30T22:49:21.218Z,7.50
2022-11-30T22:51:49.850Z,7.50
2022-11-30T22:54:17.004Z,7.50
2022-11-30T22:56:46.681Z,7.50
2022-11-30T22:59:14.336Z,7.50
2022-11-30T23:01:47.049Z,7.60
2022-11-30T23:04:19.163Z,7.50
2022-11-30T23:06:48.218Z,7.50
2022-11-30T23:09:20.970Z,7.50
2022-11-30T23:11:48.885Z,7.40
2022-11-30T23:14:16.588Z,7.40
2022-11-30T23:16:45.167Z,7.30
2022-11-30T23:19:12.881Z,7.30
2022-11-30T23:21:42.419Z,7.20
2022-11-30T23:24:14.607Z,7.20
2022-11-30T23:26:42.806Z,7.20
2022-11-30T23:29:12.686Z,7.20
2022-11-30T23:31:41.303Z,7.10
2022-11-30T23:34:12.530Z,7.20
2022-11-30T23:36:39.628Z,7.20
2022-11-30T23:39:13.707Z,7.20
2022-11-30T23:41:41.302Z,7.10
2022-11-30T23:44:09.240Z,7.10
2022-11-30T23:46:36.836Z,7.10
2022-11-30T23:49:04.309Z,7.10
2022-11-30T23:51:31.557Z,7.00
2022-11-30T23:53:58.513Z,7.00
2022-11-30T23:56:25.511Z,6.90
2022-11-30T23:58:53.190Z,6.90
